createdAt,value
2018-04-07T00:01:56.974Z,5.57
2018-04-07T00:04:24.728Z,5.77
2018-04-07T00:06:52.340Z,4.37
2018-04-07T00:09:20.430Z,5.15
2018-04-07T00:11:48.472Z,6.47
2018-04-07T00:14:16.912Z,3.50
2018-04-07T00:16:45.703Z,3.57
2018-04-07T00:19:14.345Z,6.40
2018-04-07T00:21:42.376Z,5.30
2018-04-07T00:24:10.093Z,7.03
2018-04-07T00:26:37.724Z,4.30
2018-04-07T00:29:05.477Z,4.50
2018-04-07T00:31:33.315Z,5.50
2018-04-07T00:34:09.931Z,5.90
2018-04-07T00:36:47.814Z,6.46
2018-04-07T00:42:05.436Z,6.40
2018-04-07T00:44:35.046Z,10.05
2018-04-07T00:47:02.734Z,9.60
2018-04-07T00:49:42.736Z,4.37
2018-04-07T00:52:17.821Z,9.43
2018-04-07T00:57:35.106Z,4.77
2018-04-07T01:00:16.883Z,4.97
2018-04-07T01:02:47.789Z,7.97
2018-04-07T01:05:21.041Z,7.90
2018-04-07T01:07:50.451Z,8.10
2018-04-07T01:10:21.355Z,7.23
2018-04-07T01:12:49.398Z,5.63
2018-04-07T01:15:20.524Z,7.73
2018-04-07T01:17:53.815Z,4.70
2018-04-07T01:20:25.859Z,6.27
2018-04-07T01:22:55.470Z,6.37
2018-04-07T01:25:25.138Z,6.67
2018-04-07T01:27:59.539Z,6.83
2018-04-07T01:30:31.594Z,5.53
2018-04-07T01:33:02.114Z,6.15
2018-04-07T01:35:29.730Z,8.37
2018-04-07T01:38:05.342Z,10.33
2018-04-07T01:40:36.063Z,7.00
2018-04-07T01:43:10.358Z,5.17
2018-04-07T01:45:43.522Z,6.30
2018-04-07T01:48:15.838Z,5.67
2018-04-07T01:50:46.550Z,7.77
2018-04-07T01:53:18.783Z,5.50
2018-04-07T01:56:06.045Z,5.72
2018-04-07T01:58:36.003Z,5.25
2018-04-07T02:01:09.806Z,6.20
2018-04-07T02:03:37.436Z,4.90
2018-04-07T02:06:11.515Z,7.32
2018-04-07T02:08:39.177Z,4.83
2018-04-07T02:11:11.172Z,6.70
2018-04-07T02:13:40.470Z,6.30
2018-04-07T02:16:14.487Z,6.97
2018-04-07T02:18:49.588Z,5.20
2018-04-07T02:21:20.490Z,7.93
2018-04-07T02:23:48.228Z,5.93
2018-04-07T02:26:23.137Z,6.10
2018-04-07T02:28:55.327Z,9.67
2018-04-07T02:31:29.765Z,6.57
2018-04-07T02:34:01.033Z,7.70
2018-04-07T02:36:31.872Z,6.30
2018-04-07T02:39:07.317Z,10.33
2018-04-07T02:41:41.218Z,6.43
2018-04-07T02:44:09.972Z,5.90
2018-04-07T02:46:42.259Z,6.77
2018-04-07T02:49:09.933Z,9.50
2018-04-07T02:51:39.225Z,8.13
2018-04-07T02:56:42.506Z,7.45
2018-04-07T02:59:10.909Z,8.23
2018-04-07T03:01:40.353Z,8.40
2018-04-07T03:04:12.996Z,7.00
2018-04-07T03:06:48.409Z,7.30
2018-04-07T03:09:22.134Z,6.25
2018-04-07T03:11:53.443Z,11.07
2018-04-07T03:14:26.938Z,12.20
2018-04-07T03:16:56.763Z,9.00
2018-04-07T03:19:28.352Z,8.38
2018-04-07T03:22:00.203Z,9.20
2018-04-07T03:24:29.616Z,8.53
2018-04-07T03:27:00.794Z,8.07
2018-04-07T03:29:33.238Z,7.70
2018-04-07T03:32:06.514Z,6.93
2018-04-07T03:35:00.554Z,9.00
2018-04-07T03:37:32.390Z,7.60
2018-04-07T03:40:01.264Z,6.70
2018-04-07T03:45:24.712Z,6.57
2018-04-07T03:47:56.177Z,6.82
2018-04-07T03:50:27.756Z,8.10
2018-04-07T03:53:00.812Z,5.70
2018-04-07T03:55:28.767Z,8.85
2018-04-07T03:57:57.557Z,14.90
2018-04-07T04:00:29.883Z,8.53
2018-04-07T04:03:01.548Z,9.40
2018-04-07T04:05:32.328Z,6.87
2018-04-07T04:08:01.419Z,8.70
2018-04-07T04:10:29.112Z,9.60
2018-04-07T04:12:57.899Z,7.20
2018-04-07T04:15:30.642Z,10.07
2018-04-07T04:17:59.201Z,9.53
2018-04-07T04:20:29.626Z,8.27
2018-04-07T04:22:57.580Z,7.97
2018-04-07T04:25:25.186Z,7.87
2018-04-07T04:27:52.750Z,12.30
2018-04-07T04:30:21.132Z,7.97
2018-04-07T04:32:49.654Z,9.97
2018-04-07T04:35:17.240Z,7.63
2018-04-07T04:37:45.200Z,5.80
2018-04-07T04:40:13.519Z,5.55
2018-04-07T04:42:41.915Z,8.00
2018-04-07T04:45:09.507Z,8.37
2018-04-07T04:47:37.142Z,7.57
2018-04-07T04:50:04.714Z,9.60
2018-04-07T04:52:32.248Z,9.33
2018-04-07T04:54:59.897Z,7.07
2018-04-07T04:57:27.866Z,8.10
2018-04-07T04:59:55.481Z,8.97
2018-04-07T05:02:23.012Z,9.88
2018-04-07T05:04:50.544Z,9.10
2018-04-07T05:07:18.162Z,8.47
2018-04-07T05:09:47.375Z,9.27
2018-04-07T05:12:15.346Z,8.35
2018-04-07T05:14:43.302Z,9.70
2018-04-07T05:17:10.837Z,7.82
2018-04-07T05:19:38.387Z,8.37
2018-04-07T05:22:05.946Z,7.23
2018-04-07T05:24:33.529Z,7.23
2018-04-07T05:27:01.071Z,6.30
2018-04-07T05:29:28.629Z,8.97
2018-04-07T05:31:56.842Z,11.10
2018-04-07T05:34:24.794Z,7.90
2018-04-07T05:36:52.395Z,7.23
2018-04-07T05:39:19.972Z,8.43
2018-04-07T05:41:47.555Z,7.30
2018-04-07T05:44:15.229Z,9.90
2018-04-07T05:46:42.788Z,9.87
2018-04-07T05:49:10.380Z,9.37
2018-04-07T05:51:38.681Z,7.80
2018-04-07T05:54:06.233Z,11.53
2018-04-07T05:56:33.822Z,12.63
2018-04-07T05:59:01.401Z,6.65
2018-04-07T06:01:29.073Z,12.90
2018-04-07T06:03:56.732Z,6.57
2018-04-07T06:06:24.361Z,11.83
2018-04-07T06:08:51.930Z,8.00
2018-04-07T06:11:19.466Z,9.03
2018-04-07T06:13:47.074Z,9.53
2018-04-07T06:16:15.586Z,8.00
2018-04-07T06:18:43.134Z,9.60
2018-04-07T06:21:11.086Z,7.85
2018-04-07T06:23:38.641Z,7.18
2018-04-07T06:26:06.232Z,10.70
2018-04-07T06:28:34.738Z,9.30
2018-04-07T06:31:03.250Z,10.03
2018-04-07T06:33:31.374Z,9.85
2018-04-07T06:35:59.393Z,10.70
2018-04-07T06:38:26.956Z,8.60
2018-04-07T06:40:54.892Z,11.63
2018-04-07T06:43:22.459Z,8.33
2018-04-07T06:45:50.015Z,11.60
2018-04-07T06:48:17.785Z,11.18
2018-04-07T06:50:45.602Z,8.20
2018-04-07T06:53:13.146Z,10.30
2018-04-07T06:55:41.182Z,9.67
2018-04-07T06:58:08.743Z,9.98
2018-04-07T07:00:36.520Z,13.70
2018-04-07T07:03:06.614Z,8.00
2018-04-07T07:05:34.154Z,10.20
2018-04-07T07:08:01.853Z,11.57
2018-04-07T07:10:29.458Z,7.75
2018-04-07T07:12:57.809Z,10.30
2018-04-07T07:15:25.380Z,12.90
2018-04-07T07:17:52.924Z,13.65
2018-04-07T07:20:20.486Z,11.30
2018-04-07T07:22:48.075Z,9.13
2018-04-07T07:25:16.567Z,8.75
2018-04-07T07:27:44.511Z,13.67
2018-04-07T07:30:12.060Z,10.30
2018-04-07T07:32:39.677Z,11.73
2018-04-07T07:35:07.796Z,9.67
2018-04-07T07:37:35.350Z,10.70
2018-04-07T07:40:03.482Z,10.07
2018-04-07T07:42:31.021Z,8.63
2018-04-07T07:44:58.976Z,14.10
2018-04-07T07:47:26.988Z,10.10
2018-04-07T07:49:54.577Z,11.53
2018-04-07T07:52:23.078Z,8.57
2018-04-07T07:54:50.642Z,9.50
2018-04-07T07:57:18.612Z,10.63
2018-04-07T07:59:46.591Z,9.45
2018-04-07T08:02:14.529Z,12.77
2018-04-07T08:04:42.079Z,9.23
2018-04-07T08:07:09.614Z,10.03
2018-04-07T08:09:37.950Z,9.67
2018-04-07T08:12:06.493Z,12.33
2018-04-07T08:14:34.067Z,13.93
2018-04-07T08:17:01.644Z,10.07
2018-04-07T08:19:29.281Z,9.93
2018-04-07T08:21:58.031Z,12.88
2018-04-07T08:24:25.566Z,12.70
2018-04-07T08:26:53.510Z,9.17
2018-04-07T08:29:21.090Z,11.00
2018-04-07T08:31:48.717Z,11.70
2018-04-07T08:34:16.721Z,11.13
2018-04-07T08:36:44.702Z,10.77
2018-04-07T08:39:12.272Z,12.97
2018-04-07T08:41:39.848Z,11.17
2018-04-07T08:44:07.416Z,10.63
2018-04-07T08:46:34.956Z,12.57
2018-04-07T08:49:02.581Z,11.07
2018-04-07T08:51:30.143Z,9.90
2018-04-07T08:53:58.605Z,11.70
2018-04-07T08:56:26.817Z,12.98
2018-04-07T08:58:54.798Z,8.60
2018-04-07T09:01:22.426Z,14.23
2018-04-07T09:03:49.975Z,13.20
2018-04-07T09:06:17.584Z,11.90
2018-04-07T09:08:46.065Z,10.97
2018-04-07T09:11:13.636Z,12.07
2018-04-07T09:13:41.792Z,10.60
2018-04-07T09:16:09.753Z,10.57
2018-04-07T09:18:37.926Z,11.43
2018-04-07T09:21:05.863Z,11.33
2018-04-07T09:23:33.429Z,12.47
2018-04-07T09:26:01.072Z,13.73
2018-04-07T09:28:28.646Z,13.32
2018-04-07T09:31:01.847Z,13.37
2018-04-07T09:33:29.406Z,13.67
2018-04-07T09:35:57.362Z,14.80
2018-04-07T09:38:24.915Z,9.90
2018-04-07T09:40:52.477Z,13.30
2018-04-07T09:43:21.394Z,13.17
2018-04-07T09:45:48.948Z,11.10
2018-04-07T09:48:17.007Z,12.63
2018-04-07T09:50:44.897Z,11.73
2018-04-07T09:53:13.009Z,16.10
2018-04-07T09:55:40.574Z,13.80
2018-04-07T09:58:09.159Z,14.30
2018-04-07T10:00:36.877Z,11.90
2018-04-07T10:03:04.954Z,11.40
2018-04-07T10:05:33.625Z,9.73
2018-04-07T10:08:01.214Z,12.23
2018-04-07T10:10:29.279Z,10.77
2018-04-07T10:12:57.294Z,9.80
2018-04-07T10:15:25.476Z,10.17
2018-04-07T10:17:53.037Z,12.20
2018-04-07T10:20:21.602Z,11.93
2018-04-07T10:22:50.175Z,11.93
2018-04-07T10:25:17.729Z,11.18
2018-04-07T10:27:45.292Z,10.20
2018-04-07T10:30:12.901Z,11.63
2018-04-07T10:32:40.444Z,10.00
2018-04-07T10:35:08.009Z,11.57
2018-04-07T10:37:35.561Z,11.63
2018-04-07T10:40:04.957Z,14.13
2018-04-07T10:42:32.490Z,13.43
2018-04-07T10:45:00.053Z,11.60
2018-04-07T10:47:27.638Z,12.80
2018-04-07T10:49:55.207Z,13.00
2018-04-07T10:52:22.757Z,10.60
2018-04-07T10:54:50.320Z,15.63
2018-04-07T10:57:17.962Z,12.00
2018-04-07T10:59:47.213Z,10.30
2018-04-07T11:02:14.777Z,12.60
2018-04-07T11:04:42.833Z,13.83
2018-04-07T11:07:10.485Z,13.40
2018-04-07T11:09:38.038Z,10.57
2018-04-07T11:12:05.628Z,12.60
2018-04-07T11:14:33.574Z,12.73
2018-04-07T11:17:01.743Z,11.60
2018-04-07T11:19:29.311Z,11.40
2018-04-07T11:21:57.017Z,11.60
2018-04-07T11:24:24.705Z,10.60
2018-04-07T11:26:52.237Z,13.57
2018-04-07T11:29:19.836Z,14.80
2018-04-07T11:31:47.666Z,12.00
2018-04-07T11:34:15.232Z,11.27
2018-04-07T11:36:42.803Z,15.38
2018-04-07T11:39:10.352Z,12.23
2018-04-07T11:41:38.458Z,12.80
2018-04-07T11:44:06.073Z,11.47
2018-04-07T11:46:34.018Z,10.52
2018-04-07T11:49:02.002Z,11.47
2018-04-07T11:51:30.020Z,9.67
2018-04-07T11:53:57.562Z,8.40
2018-04-07T11:56:25.125Z,8.93
2018-04-07T11:58:52.856Z,12.37
2018-04-07T12:01:20.820Z,12.70
2018-04-07T12:03:48.860Z,13.05
2018-04-07T12:06:16.551Z,9.47
2018-04-07T12:08:44.513Z,7.82
2018-04-07T12:11:12.559Z,13.23
2018-04-07T12:13:40.116Z,8.63
2018-04-07T12:16:07.687Z,7.97
2018-04-07T12:18:35.228Z,9.43
2018-04-07T12:21:02.786Z,10.30
2018-04-07T12:23:30.375Z,9.27
2018-04-07T12:25:58.337Z,8.63
2018-04-07T12:28:25.985Z,10.00
2018-04-07T12:30:53.538Z,7.90
2018-04-07T12:35:55.295Z,13.00
2018-04-07T12:38:22.848Z,10.23
2018-04-07T12:40:51.106Z,8.83
2018-04-07T12:43:18.656Z,7.90
2018-04-07T12:45:46.235Z,12.03
2018-04-07T12:48:13.803Z,8.20
2018-04-07T12:50:41.365Z,8.90
2018-04-07T12:53:09.905Z,10.20
2018-04-07T12:55:38.422Z,8.43
2018-04-07T12:58:06.027Z,8.20
2018-04-07T13:00:33.587Z,8.00
2018-04-07T13:03:01.113Z,7.60
2018-04-07T13:05:28.683Z,8.50
2018-04-07T13:07:56.737Z,9.80
2018-04-07T13:10:24.322Z,9.17
2018-04-07T13:12:51.883Z,9.07
2018-04-07T13:15:19.447Z,8.00
2018-04-07T13:17:47.027Z,8.53
2018-04-07T13:20:14.580Z,7.67
2018-04-07T13:22:42.157Z,8.50
2018-04-07T13:25:10.153Z,9.63
2018-04-07T13:27:37.706Z,7.87
2018-04-07T13:30:05.294Z,8.73
2018-04-07T13:32:32.894Z,7.72
2018-04-07T13:35:00.449Z,7.40
2018-04-07T13:37:28.869Z,9.23
2018-04-07T13:39:56.445Z,8.80
2018-04-07T13:42:23.993Z,7.97
2018-04-07T13:44:51.594Z,10.03
2018-04-07T13:47:19.147Z,7.93
2018-04-07T13:49:46.697Z,8.13
2018-04-07T13:52:14.259Z,7.63
2018-04-07T13:54:41.848Z,8.80
2018-04-07T13:57:09.591Z,8.93
2018-04-07T13:59:37.140Z,8.53
2018-04-07T14:02:04.733Z,8.33
2018-04-07T14:04:32.303Z,7.97
2018-04-07T14:07:00.264Z,9.40
2018-04-07T14:09:28.194Z,7.83
2018-04-07T14:11:55.765Z,7.43
2018-04-07T14:14:23.300Z,7.83
2018-04-07T14:16:50.908Z,9.20
2018-04-07T14:19:18.512Z,9.67
2018-04-07T14:21:46.207Z,7.33
2018-04-07T14:24:13.841Z,8.27
2018-04-07T14:26:41.406Z,8.47
2018-04-07T14:29:08.963Z,7.23
2018-04-07T14:31:36.865Z,7.30
2018-04-07T14:34:04.403Z,8.70
2018-04-07T14:36:31.989Z,7.57
2018-04-07T14:39:00.849Z,7.93
2018-04-07T14:41:28.861Z,6.33
2018-04-07T14:43:56.808Z,5.83
2018-04-07T14:46:24.386Z,11.90
2018-04-07T14:48:51.965Z,6.17
2018-04-07T14:51:19.917Z,6.33
2018-04-07T14:53:47.464Z,6.83
2018-04-07T14:56:16.660Z,6.80
2018-04-07T14:58:44.342Z,5.40
2018-04-07T15:01:12.299Z,6.10
2018-04-07T15:03:39.991Z,8.40
2018-04-07T15:06:07.938Z,6.60
2018-04-07T15:08:35.480Z,6.30
2018-04-07T15:11:03.038Z,5.30
2018-04-07T15:13:30.639Z,4.90
2018-04-07T15:15:58.597Z,4.63
2018-04-07T15:18:26.572Z,5.13
2018-04-07T15:20:54.558Z,7.30
2018-04-07T15:23:22.116Z,4.97
2018-04-07T15:25:49.663Z,5.57
2018-04-07T15:28:17.622Z,3.70
2018-04-07T15:30:45.475Z,3.50
2018-04-07T15:33:13.155Z,4.97
2018-04-07T15:35:41.144Z,5.33
2018-04-07T15:38:08.687Z,4.05
2018-04-07T15:40:37.176Z,4.13
2018-04-07T15:43:05.119Z,4.67
2018-04-07T15:45:32.693Z,5.35
2018-04-07T15:48:00.272Z,3.70
2018-04-07T15:50:27.834Z,3.73
2018-04-07T15:52:55.405Z,3.60
2018-04-07T15:55:22.987Z,3.20
2018-04-07T15:57:50.526Z,4.80
2018-04-07T16:00:18.153Z,3.73
2018-04-07T16:02:45.964Z,2.93
2018-04-07T16:05:13.583Z,4.70
2018-04-07T16:07:41.654Z,3.13
2018-04-07T16:10:09.630Z,4.95
2018-04-07T16:12:37.558Z,5.30
2018-04-07T16:15:05.133Z,3.40
2018-04-07T16:17:32.682Z,5.12
2018-04-07T16:20:00.900Z,3.57
2018-04-07T16:22:28.517Z,10.93
2018-04-07T16:24:56.036Z,2.62
2018-04-07T16:27:23.663Z,3.30
2018-04-07T16:29:51.615Z,3.90
2018-04-07T16:32:19.169Z,2.20
2018-04-07T16:34:46.721Z,1.87
2018-04-07T16:37:14.286Z,2.47
2018-04-07T16:39:41.831Z,8.70
2018-04-07T16:42:09.386Z,4.27
2018-04-07T16:44:36.951Z,4.03
2018-04-07T16:47:04.783Z,2.80
2018-04-07T16:49:32.334Z,3.30
2018-04-07T16:52:00.675Z,3.60
2018-04-07T16:54:28.568Z,2.80
2018-04-07T16:56:56.178Z,5.27
2018-04-07T16:59:23.813Z,5.67
2018-04-07T17:01:51.366Z,5.10
2018-04-07T17:04:19.323Z,3.23
2018-04-07T17:06:46.893Z,4.00
2018-04-07T17:09:14.483Z,3.00
2018-04-07T17:11:42.058Z,2.80
2018-04-07T17:14:09.850Z,4.30
2018-04-07T17:16:38.052Z,3.77
2018-04-07T17:19:05.974Z,4.07
2018-04-07T17:21:33.618Z,4.57
2018-04-07T17:24:01.339Z,3.30
2018-04-07T17:26:28.942Z,2.53
2018-04-07T17:28:56.513Z,5.97
2018-04-07T17:31:24.795Z,6.13
2018-04-07T17:33:52.347Z,5.03
2018-04-07T17:36:19.920Z,5.13
2018-04-07T17:38:47.481Z,11.50
2018-04-07T17:41:15.039Z,9.60
2018-04-07T17:43:42.656Z,10.37
2018-04-07T17:46:10.441Z,7.63
2018-04-07T17:48:38.057Z,3.20
2018-04-07T17:51:05.611Z,5.53
2018-04-07T17:53:33.566Z,4.97
2018-04-07T17:56:01.532Z,5.17
2018-04-07T17:58:29.612Z,6.40
2018-04-07T18:00:57.240Z,16.53
2018-04-07T18:03:24.845Z,6.22
2018-04-07T18:05:52.834Z,9.13
2018-04-07T18:08:20.721Z,14.47
2018-04-07T18:10:49.305Z,10.60
2018-04-07T18:13:17.327Z,13.43
2018-04-07T18:15:45.386Z,9.33
2018-04-07T18:18:13.275Z,6.03
2018-04-07T18:20:41.253Z,5.63
2018-04-07T18:23:08.806Z,5.87
2018-04-07T18:25:36.770Z,8.80
2018-04-07T18:28:05.678Z,7.23
2018-04-07T18:30:33.288Z,8.23
2018-04-07T18:33:01.321Z,9.27
2018-04-07T18:35:29.257Z,7.53
2018-04-07T18:37:56.980Z,8.27
2018-04-07T18:40:24.613Z,7.60
2018-04-07T18:42:53.226Z,9.80
2018-04-07T18:45:21.075Z,8.00
2018-04-07T18:47:49.021Z,8.17
2018-04-07T19:08:03.090Z,6.47
2018-04-07T19:10:30.634Z,8.02
2018-04-07T19:12:58.232Z,6.53
2018-04-07T19:15:25.838Z,5.93
2018-04-07T19:17:54.767Z,10.93
2018-04-07T19:20:22.335Z,6.78
2018-04-07T19:22:49.904Z,6.90
2018-04-07T19:25:17.471Z,10.23
2018-04-07T19:27:45.092Z,6.97
2018-04-07T19:30:12.645Z,9.60
2018-04-07T19:32:40.711Z,8.77
2018-04-07T19:35:08.655Z,8.03
2018-04-07T19:37:36.908Z,7.70
2018-04-07T19:40:04.516Z,7.23
2018-04-07T19:42:32.525Z,11.33
2018-04-07T19:45:00.154Z,9.40
2018-04-07T19:47:28.144Z,11.37
2018-04-07T19:49:55.722Z,10.80
2018-04-07T19:52:23.251Z,9.50
2018-04-07T19:54:50.863Z,7.67
2018-04-07T19:57:18.418Z,8.20
2018-04-07T19:59:46.004Z,7.33
2018-04-07T20:02:13.985Z,5.93
2018-04-07T20:04:41.586Z,7.93
2018-04-07T20:07:09.151Z,7.60
2018-04-07T20:09:36.713Z,10.67
2018-04-07T20:12:05.105Z,7.55
2018-04-07T20:14:32.740Z,10.43
2018-04-07T20:17:00.493Z,6.07
2018-04-07T20:19:28.901Z,6.40
2018-04-07T20:21:56.556Z,9.10
2018-04-07T20:24:24.274Z,7.60
2018-04-07T20:26:52.042Z,5.07
2018-04-07T20:29:19.668Z,6.27
2018-04-07T20:31:47.412Z,10.03
2018-04-07T20:34:15.364Z,5.77
2018-04-07T20:36:44.445Z,7.68
2018-04-07T20:42:23.954Z,8.60
2018-04-07T20:48:10.659Z,6.50
2018-04-07T20:50:43.796Z,5.73
2018-04-07T20:53:23.034Z,5.39
2018-04-07T20:55:55.572Z,5.10
2018-04-07T20:58:32.688Z,6.72
2018-04-07T21:01:01.522Z,7.63
2018-04-07T21:09:09.621Z,8.93
2018-04-07T21:19:48.961Z,7.67
2018-04-07T21:22:44.709Z,9.98
2018-04-07T21:25:28.892Z,7.57
2018-04-07T21:28:00.063Z,6.63
2018-04-07T21:33:34.003Z,4.87
2018-04-07T21:38:37.361Z,5.90
2018-04-07T21:41:08.682Z,6.57
2018-04-07T21:46:39.714Z,7.37
2018-04-07T21:52:22.512Z,6.20
2018-04-07T21:57:40.520Z,7.30
2018-04-07T22:00:17.065Z,7.23
2018-04-07T22:35:37.335Z,5.30
2018-04-07T22:38:12.500Z,7.15
2018-04-07T22:40:49.334Z,5.65
2018-04-07T22:43:33.247Z,4.97
2018-04-07T22:49:12.785Z,8.32
2018-04-07T22:52:05.085Z,7.85
2018-04-07T22:54:33.953Z,6.57
2018-04-07T22:57:05.147Z,7.93
2018-04-07T22:59:33.139Z,8.00
2018-04-07T23:02:01.213Z,9.60
2018-04-07T23:04:28.906Z,9.23
2018-04-07T23:06:56.505Z,6.90
2018-04-07T23:09:24.182Z,7.27
2018-04-07T23:11:52.219Z,8.00
2018-04-07T23:14:19.814Z,6.80
2018-04-07T23:16:47.519Z,7.70
2018-04-07T23:19:15.412Z,8.67
2018-04-07T23:21:43.400Z,7.03
2018-04-07T23:24:11.694Z,8.53
2018-04-07T23:26:39.893Z,13.03
2018-04-07T23:29:07.673Z,7.45
2018-04-07T23:31:35.798Z,7.90
2018-04-07T23:34:03.530Z,8.00
2018-04-07T23:36:31.181Z,4.87
2018-04-07T23:38:58.795Z,7.93
2018-04-07T23:41:26.890Z,7.37
2018-04-07T23:43:54.595Z,6.80
2018-04-07T23:46:22.398Z,7.60
2018-04-07T23:48:50.540Z,11.40
2018-04-07T23:51:18.120Z,8.10
2018-04-07T23:53:46.233Z,6.45
2018-04-07T23:56:14.373Z,9.10
2018-04-07T23:58:42.148Z,8.17
